sensor_id;sensor_type;location;lat;lon;timestamp;P1;durP1;ratioP1;P2;durP2;ratioP2
20669;SDS011;10494;50.868;4.180;2022-10-23T00:01:12;13.00;;;6.07;;
20669;SDS011;10494;50.868;4.180;2022-10-23T00:03:41;10.48;;;4.75;;
20669;SDS011;10494;50.868;4.180;2022-10-23T00:06:07;12.32;;;5.15;;
20669;SDS011;10494;50.868;4.180;2022-10-23T00:08:33;17.23;;;5.57;;
20669;SDS011;10494;50.868;4.180;2022-10-23T00:10:59;11.93;;;5.18;;
20669;SDS011;10494;50.868;4.180;2022-10-23T00:13:24;11.35;;;5.50;;
20669;SDS011;10494;50.868;4.180;2022-10-23T00:15:50;13.82;;;5.38;;
20669;SDS011;10494;50.868;4.180;2022-10-23T00:18:15;14.90;;;5.47;;
20669;SDS011;10494;50.868;4.180;2022-10-23T00:20:41;14.57;;;4.95;;
20669;SDS011;10494;50.868;4.180;2022-10-23T00:23:06;7.88;;;4.57;;
20669;SDS011;10494;50.868;4.180;2022-10-23T00:25:32;11.15;;;4.88;;
20669;SDS011;10494;50.868;4.180;2022-10-23T00:27:58;13.13;;;4.70;;
20669;SDS011;10494;50.868;4.180;2022-10-23T00:30:24;12.73;;;4.68;;
20669;SDS011;10494;50.868;4.180;2022-10-23T00:32:49;12.35;;;5.60;;
20669;SDS011;10494;50.868;4.180;2022-10-23T00:35:15;14.68;;;5.78;;
20669;SDS011;10494;50.868;4.180;2022-10-23T00:37:40;9.63;;;4.18;;
20669;SDS011;10494;50.868;4.180;2022-10-23T00:40:06;10.38;;;5.15;;
20669;SDS011;10494;50.868;4.180;2022-10-23T00:42:32;13.73;;;5.68;;
20669;SDS011;10494;50.868;4.180;2022-10-23T00:45:09;14.18;;;5.40;;
20669;SDS011;10494;50.868;4.180;2022-10-23T00:47:51;17.60;;;6.35;;
20669;SDS011;10494;50.868;4.180;2022-10-23T00:50:17;15.32;;;5.38;;
20669;SDS011;10494;50.868;4.180;2022-10-23T00:52:47;12.13;;;5.18;;
20669;SDS011;10494;50.868;4.180;2022-10-23T00:55:15;18.00;;;5.25;;
20669;SDS011;10494;50.868;4.180;2022-10-23T00:57:42;12.93;;;5.05;;
20669;SDS011;10494;50.868;4.180;2022-10-23T01:00:11;10.43;;;4.95;;
20669;SDS011;10494;50.868;4.180;2022-10-23T01:02:39;18.17;;;5.38;;
20669;SDS011;10494;50.868;4.180;2022-10-23T01:05:05;14.57;;;4.43;;
20669;SDS011;10494;50.868;4.180;2022-10-23T01:07:35;11.57;;;4.75;;
20669;SDS011;10494;50.868;4.180;2022-10-23T01:13:10;11.45;;;4.40;;
20669;SDS011;10494;50.868;4.180;2022-10-23T01:15:58;11.95;;;4.13;;
20669;SDS011;10494;50.868;4.180;2022-10-23T01:18:37;7.45;;;3.28;;
20669;SDS011;10494;50.868;4.180;2022-10-23T01:21:17;11.15;;;4.00;;
20669;SDS011;10494;50.868;4.180;2022-10-23T01:27:08;10.52;;;3.80;;
20669;SDS011;10494;50.868;4.180;2022-10-23T01:35:00;12.20;;;3.40;;
20669;SDS011;10494;50.868;4.180;2022-10-23T01:37:28;10.07;;;3.75;;
20669;SDS011;10494;50.868;4.180;2022-10-23T01:40:00;13.75;;;3.60;;
20669;SDS011;10494;50.868;4.180;2022-10-23T01:42:35;9.15;;;3.15;;
20669;SDS011;10494;50.868;4.180;2022-10-23T01:45:08;6.15;;;3.22;;
20669;SDS011;10494;50.868;4.180;2022-10-23T01:47:42;5.18;;;2.83;;
20669;SDS011;10494;50.868;4.180;2022-10-23T01:50:08;11.10;;;3.22;;
20669;SDS011;10494;50.868;4.180;2022-10-23T01:52:37;7.25;;;3.38;;
20669;SDS011;10494;50.868;4.180;2022-10-23T01:55:02;7.55;;;2.80;;
20669;SDS011;10494;50.868;4.180;2022-10-23T01:57:31;9.20;;;3.35;;
20669;SDS011;10494;50.868;4.180;2022-10-23T02:00:09;7.60;;;3.17;;
20669;SDS011;10494;50.868;4.180;2022-10-23T02:02:38;9.32;;;2.83;;
20669;SDS011;10494;50.868;4.180;2022-10-23T02:07:39;7.45;;;2.80;;
20669;SDS011;10494;50.868;4.180;2022-10-23T02:10:05;5.25;;;2.45;;
20669;SDS011;10494;50.868;4.180;2022-10-23T02:21:09;9.93;;;2.75;;
20669;SDS011;10494;50.868;4.180;2022-10-23T02:23:50;7.90;;;2.42;;
20669;SDS011;10494;50.868;4.180;2022-10-23T02:26:41;7.68;;;2.67;;
20669;SDS011;10494;50.868;4.180;2022-10-23T02:31:59;6.38;;;2.70;;
20669;SDS011;10494;50.868;4.180;2022-10-23T02:34:25;9.00;;;2.60;;
20669;SDS011;10494;50.868;4.180;2022-10-23T02:36:51;10.05;;;2.80;;
20669;SDS011;10494;50.868;4.180;2022-10-23T02:39:17;7.43;;;2.45;;
20669;SDS011;10494;50.868;4.180;2022-10-23T02:41:46;8.68;;;2.78;;
20669;SDS011;10494;50.868;4.180;2022-10-23T02:52:34;8.18;;;2.40;;
20669;SDS011;10494;50.868;4.180;2022-10-23T03:00:55;8.70;;;2.95;;
20669;SDS011;10494;50.868;4.180;2022-10-23T03:03:33;8.15;;;2.40;;
20669;SDS011;10494;50.868;4.180;2022-10-23T03:06:02;12.07;;;2.90;;
20669;SDS011;10494;50.868;4.180;2022-10-23T03:08:28;5.95;;;2.80;;
20669;SDS011;10494;50.868;4.180;2022-10-23T03:10:53;5.07;;;2.65;;
20669;SDS011;10494;50.868;4.180;2022-10-23T03:13:19;7.72;;;2.35;;
20669;SDS011;10494;50.868;4.180;2022-10-23T03:15:44;7.85;;;2.80;;
20669;SDS011;10494;50.868;4.180;2022-10-23T03:18:10;9.57;;;2.67;;
20669;SDS011;10494;50.868;4.180;2022-10-23T03:20:36;6.72;;;2.42;;
20669;SDS011;10494;50.868;4.180;2022-10-23T03:23:01;7.10;;;2.55;;
20669;SDS011;10494;50.868;4.180;2022-10-23T03:25:27;7.43;;;2.40;;
20669;SDS011;10494;50.868;4.180;2022-10-23T03:27:52;6.95;;;2.65;;
20669;SDS011;10494;50.868;4.180;2022-10-23T03:30:18;7.72;;;2.50;;
20669;SDS011;10494;50.868;4.180;2022-10-23T03:32:44;5.60;;;2.38;;
20669;SDS011;10494;50.868;4.180;2022-10-23T03:35:09;6.80;;;2.60;;
20669;SDS011;10494;50.868;4.180;2022-10-23T03:37:35;7.40;;;2.45;;
20669;SDS011;10494;50.868;4.180;2022-10-23T03:40:01;7.15;;;2.45;;
20669;SDS011;10494;50.868;4.180;2022-10-23T03:42:26;5.78;;;2.40;;
20669;SDS011;10494;50.868;4.180;2022-10-23T03:44:52;8.15;;;3.25;;
20669;SDS011;10494;50.868;4.180;2022-10-23T03:47:17;6.18;;;2.63;;
20669;SDS011;10494;50.868;4.180;2022-10-23T03:49:43;6.28;;;2.80;;
20669;SDS011;10494;50.868;4.180;2022-10-23T03:52:09;6.50;;;2.30;;
20669;SDS011;10494;50.868;4.180;2022-10-23T03:54:34;7.03;;;2.63;;
20669;SDS011;10494;50.868;4.180;2022-10-23T03:57:00;7.65;;;2.70;;
20669;SDS011;10494;50.868;4.180;2022-10-23T03:59:26;6.05;;;2.35;;
20669;SDS011;10494;50.868;4.180;2022-10-23T04:01:52;5.72;;;2.22;;
20669;SDS011;10494;50.868;4.180;2022-10-23T04:04:18;7.80;;;2.30;;
20669;SDS011;10494;50.868;4.180;2022-10-23T04:06:43;4.93;;;2.60;;
20669;SDS011;10494;50.868;4.180;2022-10-23T04:09:09;7.22;;;2.33;;
20669;SDS011;10494;50.868;4.180;2022-10-23T04:11:35;8.85;;;2.50;;
20669;SDS011;10494;50.868;4.180;2022-10-23T04:14:01;6.30;;;2.20;;
20669;SDS011;10494;50.868;4.180;2022-10-23T04:16:27;6.38;;;2.42;;
20669;SDS011;10494;50.868;4.180;2022-10-23T04:18:52;6.18;;;2.53;;
20669;SDS011;10494;50.868;4.180;2022-10-23T04:21:18;8.70;;;2.85;;
20669;SDS011;10494;50.868;4.180;2022-10-23T04:23:43;6.50;;;2.90;;
20669;SDS011;10494;50.868;4.180;2022-10-23T04:26:09;9.07;;;2.38;;
20669;SDS011;10494;50.868;4.180;2022-10-23T04:28:35;13.10;;;3.15;;
20669;SDS011;10494;50.868;4.180;2022-10-23T04:31:00;9.38;;;2.60;;
20669;SDS011;10494;50.868;4.180;2022-10-23T04:33:26;8.32;;;2.83;;
20669;SDS011;10494;50.868;4.180;2022-10-23T04:35:52;5.57;;;2.65;;
20669;SDS011;10494;50.868;4.180;2022-10-23T04:38:18;8.55;;;2.67;;
20669;SDS011;10494;50.868;4.180;2022-10-23T04:40:43;9.82;;;2.40;;
20669;SDS011;10494;50.868;4.180;2022-10-23T04:43:09;5.38;;;2.72;;
20669;SDS011;10494;50.868;4.180;2022-10-23T04:45:35;7.50;;;2.58;;
20669;SDS011;10494;50.868;4.180;2022-10-23T04:48:00;8.23;;;2.60;;
20669;SDS011;10494;50.868;4.180;2022-10-23T04:50:26;4.63;;;2.50;;
20669;SDS011;10494;50.868;4.180;2022-10-23T04:52:55;15.43;;;2.38;;
20669;SDS011;10494;50.868;4.180;2022-10-23T04:55:21;8.32;;;2.08;;
20669;SDS011;10494;50.868;4.180;2022-10-23T04:57:49;7.18;;;2.17;;
20669;SDS011;10494;50.868;4.180;2022-10-23T05:00:15;10.68;;;2.78;;
20669;SDS011;10494;50.868;4.180;2022-10-23T05:02:41;5.38;;;2.10;;
20669;SDS011;10494;50.868;4.180;2022-10-23T05:05:07;5.28;;;2.25;;
20669;SDS011;10494;50.868;4.180;2022-10-23T05:07:33;7.25;;;2.35;;
20669;SDS011;10494;50.868;4.180;2022-10-23T05:09:59;4.50;;;2.15;;
20669;SDS011;10494;50.868;4.180;2022-10-23T05:12:25;4.88;;;1.98;;
20669;SDS011;10494;50.868;4.180;2022-10-23T05:14:51;5.43;;;2.58;;
20669;SDS011;10494;50.868;4.180;2022-10-23T05:17:22;7.55;;;2.15;;
20669;SDS011;10494;50.868;4.180;2022-10-23T05:19:52;5.18;;;2.03;;
20669;SDS011;10494;50.868;4.180;2022-10-23T05:22:19;5.38;;;2.05;;
20669;SDS011;10494;50.868;4.180;2022-10-23T05:24:48;3.75;;;2.00;;
20669;SDS011;10494;50.868;4.180;2022-10-23T05:27:14;11.63;;;2.40;;
20669;SDS011;10494;50.868;4.180;2022-10-23T05:29:39;10.10;;;2.33;;
20669;SDS011;10494;50.868;4.180;2022-10-23T05:32:05;4.43;;;2.17;;
20669;SDS011;10494;50.868;4.180;2022-10-23T05:34:33;5.00;;;1.98;;
20669;SDS011;10494;50.868;4.180;2022-10-23T05:37:01;8.07;;;1.90;;
20669;SDS011;10494;50.868;4.180;2022-10-23T05:39:28;2.85;;;1.85;;
20669;SDS011;10494;50.868;4.180;2022-10-23T05:41:54;5.75;;;2.53;;
20669;SDS011;10494;50.868;4.180;2022-10-23T05:44:20;3.42;;;1.90;;
20669;SDS011;10494;50.868;4.180;2022-10-23T05:46:45;4.72;;;2.03;;
20669;SDS011;10494;50.868;4.180;2022-10-23T05:49:11;3.95;;;2.33;;
20669;SDS011;10494;50.868;4.180;2022-10-23T05:51:38;6.43;;;2.25;;
20669;SDS011;10494;50.868;4.180;2022-10-23T05:54:04;4.10;;;2.00;;
20669;SDS011;10494;50.868;4.180;2022-10-23T05:56:32;7.20;;;2.10;;
20669;SDS011;10494;50.868;4.180;2022-10-23T05:58:59;4.82;;;2.10;;
20669;SDS011;10494;50.868;4.180;2022-10-23T06:01:24;8.57;;;2.28;;
20669;SDS011;10494;50.868;4.180;2022-10-23T06:03:50;6.63;;;2.47;;
20669;SDS011;10494;50.868;4.180;2022-10-23T06:06:16;6.45;;;2.17;;
20669;SDS011;10494;50.868;4.180;2022-10-23T06:08:41;4.93;;;2.53;;
20669;SDS011;10494;50.868;4.180;2022-10-23T06:11:07;5.22;;;2.55;;
20669;SDS011;10494;50.868;4.180;2022-10-23T06:13:35;4.43;;;2.17;;
20669;SDS011;10494;50.868;4.180;2022-10-23T06:16:14;7.95;;;2.65;;
20669;SDS011;10494;50.868;4.180;2022-10-23T06:18:42;10.05;;;2.65;;
20669;SDS011;10494;50.868;4.180;2022-10-23T06:21:08;8.02;;;2.30;;
20669;SDS011;10494;50.868;4.180;2022-10-23T06:23:35;4.05;;;2.35;;
20669;SDS011;10494;50.868;4.180;2022-10-23T06:26:03;4.65;;;2.17;;
20669;SDS011;10494;50.868;4.180;2022-10-23T06:28:29;8.65;;;2.40;;
20669;SDS011;10494;50.868;4.180;2022-10-23T06:30:55;8.00;;;2.40;;
20669;SDS011;10494;50.868;4.180;2022-10-23T06:33:20;10.93;;;2.17;;
20669;SDS011;10494;50.868;4.180;2022-10-23T06:35:46;7.18;;;2.17;;
20669;SDS011;10494;50.868;4.180;2022-10-23T06:38:12;8.13;;;2.17;;
20669;SDS011;10494;50.868;4.180;2022-10-23T06:40:37;7.90;;;2.47;;
20669;SDS011;10494;50.868;4.180;2022-10-23T06:43:03;4.00;;;2.20;;
20669;SDS011;10494;50.868;4.180;2022-10-23T06:45:29;7.53;;;2.45;;
20669;SDS011;10494;50.868;4.180;2022-10-23T06:47:58;5.30;;;2.35;;
20669;SDS011;10494;50.868;4.180;2022-10-23T06:50:24;7.35;;;2.30;;
20669;SDS011;10494;50.868;4.180;2022-10-23T06:52:50;3.75;;;2.42;;
20669;SDS011;10494;50.868;4.180;2022-10-23T06:55:16;7.57;;;2.10;;
20669;SDS011;10494;50.868;4.180;2022-10-23T06:57:42;6.28;;;2.20;;
20669;SDS011;10494;50.868;4.180;2022-10-23T07:00:08;3.83;;;2.10;;
20669;SDS011;10494;50.868;4.180;2022-10-23T07:02:35;4.30;;;2.20;;
20669;SDS011;10494;50.868;4.180;2022-10-23T07:05:00;7.90;;;2.20;;
20669;SDS011;10494;50.868;4.180;2022-10-23T07:07:28;4.80;;;2.13;;
20669;SDS011;10494;50.868;4.180;2022-10-23T07:09:54;6.20;;;2.47;;
20669;SDS011;10494;50.868;4.180;2022-10-23T07:12:20;7.05;;;2.38;;
20669;SDS011;10494;50.868;4.180;2022-10-23T07:14:45;4.50;;;2.30;;
20669;SDS011;10494;50.868;4.180;2022-10-23T07:17:11;5.35;;;2.60;;
20669;SDS011;10494;50.868;4.180;2022-10-23T07:19:36;7.70;;;2.50;;
20669;SDS011;10494;50.868;4.180;2022-10-23T07:22:02;6.15;;;2.63;;
20669;SDS011;10494;50.868;4.180;2022-10-23T07:24:27;5.55;;;2.40;;
20669;SDS011;10494;50.868;4.180;2022-10-23T07:26:55;5.53;;;2.40;;
20669;SDS011;10494;50.868;4.180;2022-10-23T07:29:20;8.57;;;2.95;;
20669;SDS011;10494;50.868;4.180;2022-10-23T07:31:46;6.60;;;2.63;;
20669;SDS011;10494;50.868;4.180;2022-10-23T07:34:12;4.55;;;2.60;;
20669;SDS011;10494;50.868;4.180;2022-10-23T07:36:37;8.32;;;2.97;;
20669;SDS011;10494;50.868;4.180;2022-10-23T07:39:03;8.52;;;2.67;;
20669;SDS011;10494;50.868;4.180;2022-10-23T07:41:28;3.80;;;2.60;;
20669;SDS011;10494;50.868;4.180;2022-10-23T07:43:54;5.60;;;2.63;;
20669;SDS011;10494;50.868;4.180;2022-10-23T07:46:19;4.43;;;2.60;;
20669;SDS011;10494;50.868;4.180;2022-10-23T07:48:45;3.42;;;2.15;;
20669;SDS011;10494;50.868;4.180;2022-10-23T07:51:11;7.95;;;2.60;;
20669;SDS011;10494;50.868;4.180;2022-10-23T07:53:38;4.97;;;2.40;;
20669;SDS011;10494;50.868;4.180;2022-10-23T07:56:14;5.43;;;2.50;;
20669;SDS011;10494;50.868;4.180;2022-10-23T07:58:42;7.60;;;2.90;;
20669;SDS011;10494;50.868;4.180;2022-10-23T08:01:17;6.65;;;2.60;;
20669;SDS011;10494;50.868;4.180;2022-10-23T08:03:47;6.50;;;2.60;;
20669;SDS011;10494;50.868;4.180;2022-10-23T08:06:12;6.13;;;2.20;;
20669;SDS011;10494;50.868;4.180;2022-10-23T08:08:38;8.90;;;2.47;;
20669;SDS011;10494;50.868;4.180;2022-10-23T08:11:04;6.18;;;2.25;;
20669;SDS011;10494;50.868;4.180;2022-10-23T08:13:30;5.03;;;2.53;;
20669;SDS011;10494;50.868;4.180;2022-10-23T08:15:55;7.75;;;2.65;;
20669;SDS011;10494;50.868;4.180;2022-10-23T08:18:22;9.43;;;2.60;;
20669;SDS011;10494;50.868;4.180;2022-10-23T08:20:48;9.20;;;2.60;;
20669;SDS011;10494;50.868;4.180;2022-10-23T08:23:16;7.43;;;2.20;;
20669;SDS011;10494;50.868;4.180;2022-10-23T08:25:43;8.77;;;2.72;;
20669;SDS011;10494;50.868;4.180;2022-10-23T08:28:09;4.85;;;2.78;;
20669;SDS011;10494;50.868;4.180;2022-10-23T08:30:35;6.40;;;2.63;;
20669;SDS011;10494;50.868;4.180;2022-10-23T08:33:02;9.15;;;2.25;;
20669;SDS011;10494;50.868;4.180;2022-10-23T08:35:29;10.07;;;2.75;;
20669;SDS011;10494;50.868;4.180;2022-10-23T08:37:54;7.85;;;2.70;;
20669;SDS011;10494;50.868;4.180;2022-10-23T08:40:23;6.70;;;2.45;;
20669;SDS011;10494;50.868;4.180;2022-10-23T08:42:56;7.68;;;2.83;;
20669;SDS011;10494;50.868;4.180;2022-10-23T08:46:01;11.23;;;2.78;;
20669;SDS011;10494;50.868;4.180;2022-10-23T08:48:25;8.05;;;2.42;;
20669;SDS011;10494;50.868;4.180;2022-10-23T08:51:10;11.05;;;2.88;;
20669;SDS011;10494;50.868;4.180;2022-10-23T08:56:32;9.40;;;2.40;;
20669;SDS011;10494;50.868;4.180;2022-10-23T08:59:03;9.15;;;2.90;;
20669;SDS011;10494;50.868;4.180;2022-10-23T09:01:42;6.43;;;2.45;;
20669;SDS011;10494;50.868;4.180;2022-10-23T09:04:13;10.80;;;2.92;;
20669;SDS011;10494;50.868;4.180;2022-10-23T09:12:22;9.38;;;2.72;;
20669;SDS011;10494;50.868;4.180;2022-10-23T09:17:44;9.32;;;2.55;;
20669;SDS011;10494;50.868;4.180;2022-10-23T09:23:00;7.93;;;2.67;;
20669;SDS011;10494;50.868;4.180;2022-10-23T09:25:29;7.50;;;2.72;;
20669;SDS011;10494;50.868;4.180;2022-10-23T09:27:59;6.70;;;2.80;;
20669;SDS011;10494;50.868;4.180;2022-10-23T09:30:30;7.82;;;2.80;;
20669;SDS011;10494;50.868;4.180;2022-10-23T09:32:59;5.13;;;2.78;;
20669;SDS011;10494;50.868;4.180;2022-10-23T09:35:36;9.75;;;4.15;;
20669;SDS011;10494;50.868;4.180;2022-10-23T09:38:01;7.28;;;2.55;;
20669;SDS011;10494;50.868;4.180;2022-10-23T09:40:31;6.28;;;3.00;;
20669;SDS011;10494;50.868;4.180;2022-10-23T09:43:14;8.57;;;2.97;;
20669;SDS011;10494;50.868;4.180;2022-10-23T09:45:41;7.20;;;3.00;;
20669;SDS011;10494;50.868;4.180;2022-10-23T09:48:12;6.68;;;2.88;;
20669;SDS011;10494;50.868;4.180;2022-10-23T09:51:01;5.85;;;2.58;;
20669;SDS011;10494;50.868;4.180;2022-10-23T09:53:51;9.27;;;2.65;;
20669;SDS011;10494;50.868;4.180;2022-10-23T09:56:23;6.22;;;2.67;;
20669;SDS011;10494;50.868;4.180;2022-10-23T10:01:30;4.72;;;2.78;;
20669;SDS011;10494;50.868;4.180;2022-10-23T10:04:00;6.68;;;2.72;;
20669;SDS011;10494;50.868;4.180;2022-10-23T10:06:27;8.88;;;2.95;;
20669;SDS011;10494;50.868;4.180;2022-10-23T10:09:01;5.22;;;2.95;;
20669;SDS011;10494;50.868;4.180;2022-10-23T10:11:45;8.77;;;3.65;;
20669;SDS011;10494;50.868;4.180;2022-10-23T10:14:34;13.90;;;3.45;;
20669;SDS011;10494;50.868;4.180;2022-10-23T10:23:05;7.88;;;3.30;;
20669;SDS011;10494;50.868;4.180;2022-10-23T10:25:52;8.05;;;3.42;;
20669;SDS011;10494;50.868;4.180;2022-10-23T10:34:24;15.07;;;3.20;;
20669;SDS011;10494;50.868;4.180;2022-10-23T10:36:53;8.85;;;2.80;;
20669;SDS011;10494;50.868;4.180;2022-10-23T10:39:34;8.60;;;3.42;;
20669;SDS011;10494;50.868;4.180;2022-10-23T10:45:16;9.75;;;3.10;;
20669;SDS011;10494;50.868;4.180;2022-10-23T10:48:13;11.88;;;3.40;;
20669;SDS011;10494;50.868;4.180;2022-10-23T10:50:55;9.75;;;3.67;;
20669;SDS011;10494;50.868;4.180;2022-10-23T10:53:43;7.93;;;3.13;;
20669;SDS011;10494;50.868;4.180;2022-10-23T10:56:18;8.95;;;2.70;;
20669;SDS011;10494;50.868;4.180;2022-10-23T10:58:51;10.50;;;3.50;;
20669;SDS011;10494;50.868;4.180;2022-10-23T11:07:10;7.18;;;3.42;;
20669;SDS011;10494;50.868;4.180;2022-10-23T11:09:39;6.30;;;3.20;;
20669;SDS011;10494;50.868;4.180;2022-10-23T11:12:11;12.75;;;3.70;;
20669;SDS011;10494;50.868;4.180;2022-10-23T11:14:41;15.65;;;2.95;;
20669;SDS011;10494;50.868;4.180;2022-10-23T11:22:34;6.68;;;2.63;;
20669;SDS011;10494;50.868;4.180;2022-10-23T11:25:13;6.32;;;3.10;;
20669;SDS011;10494;50.868;4.180;2022-10-23T11:37:04;10.32;;;2.80;;
20669;SDS011;10494;50.868;4.180;2022-10-23T11:39:33;6.65;;;2.90;;
20669;SDS011;10494;50.868;4.180;2022-10-23T11:47:02;6.47;;;2.65;;
20669;SDS011;10494;50.868;4.180;2022-10-23T11:49:30;10.68;;;2.80;;
20669;SDS011;10494;50.868;4.180;2022-10-23T11:52:00;8.35;;;2.90;;
20669;SDS011;10494;50.868;4.180;2022-10-23T11:54:29;11.02;;;2.65;;
20669;SDS011;10494;50.868;4.180;2022-10-23T12:05:05;7.65;;;2.55;;
20669;SDS011;10494;50.868;4.180;2022-10-23T12:07:35;11.52;;;2.45;;
20669;SDS011;10494;50.868;4.180;2022-10-23T12:10:06;7.43;;;2.40;;
20669;SDS011;10494;50.868;4.180;2022-10-23T12:12:54;7.18;;;2.90;;
20669;SDS011;10494;50.868;4.180;2022-10-23T12:15:22;5.72;;;2.60;;
20669;SDS011;10494;50.868;4.180;2022-10-23T12:17:50;7.68;;;2.80;;
20669;SDS011;10494;50.868;4.180;2022-10-23T12:28:20;5.10;;;2.05;;
20669;SDS011;10494;50.868;4.180;2022-10-23T12:33:52;4.85;;;2.08;;
20669;SDS011;10494;50.868;4.180;2022-10-23T12:36:24;5.95;;;2.22;;
20669;SDS011;10494;50.868;4.180;2022-10-23T12:38:55;5.55;;;2.40;;
20669;SDS011;10494;50.868;4.180;2022-10-23T12:41:26;5.72;;;2.30;;
20669;SDS011;10494;50.868;4.180;2022-10-23T12:43:55;6.30;;;2.50;;
20669;SDS011;10494;50.868;4.180;2022-10-23T12:46:40;6.35;;;2.08;;
20669;SDS011;10494;50.868;4.180;2022-10-23T12:49:14;5.70;;;2.00;;
20669;SDS011;10494;50.868;4.180;2022-10-23T12:51:45;5.45;;;2.38;;
20669;SDS011;10494;50.868;4.180;2022-10-23T12:54:30;7.47;;;2.25;;
20669;SDS011;10494;50.868;4.180;2022-10-23T12:56:57;6.30;;;2.72;;
20669;SDS011;10494;50.868;4.180;2022-10-23T12:59:24;6.78;;;2.10;;
20669;SDS011;10494;50.868;4.180;2022-10-23T13:01:52;5.88;;;2.15;;
20669;SDS011;10494;50.868;4.180;2022-10-23T13:06:50;2.83;;;1.83;;
20669;SDS011;10494;50.868;4.180;2022-10-23T13:11:57;9.98;;;2.22;;
20669;SDS011;10494;50.868;4.180;2022-10-23T13:14:35;7.10;;;2.13;;
20669;SDS011;10494;50.868;4.180;2022-10-23T13:17:01;5.38;;;2.35;;
20669;SDS011;10494;50.868;4.180;2022-10-23T13:19:29;5.00;;;2.08;;
20669;SDS011;10494;50.868;4.180;2022-10-23T13:21:55;7.60;;;2.53;;
20669;SDS011;10494;50.868;4.180;2022-10-23T13:24:22;7.00;;;2.10;;
20669;SDS011;10494;50.868;4.180;2022-10-23T13:26:50;5.53;;;2.13;;
20669;SDS011;10494;50.868;4.180;2022-10-23T13:31:44;6.93;;;2.20;;
20669;SDS011;10494;50.868;4.180;2022-10-23T13:34:28;7.32;;;2.10;;
20669;SDS011;10494;50.868;4.180;2022-10-23T13:39:27;5.53;;;2.05;;
20669;SDS011;10494;50.868;4.180;2022-10-23T13:41:54;4.60;;;1.90;;
20669;SDS011;10494;50.868;4.180;2022-10-23T13:44:23;4.82;;;2.05;;
20669;SDS011;10494;50.868;4.180;2022-10-23T13:46:48;5.63;;;2.28;;
20669;SDS011;10494;50.868;4.180;2022-10-23T13:49:16;8.07;;;2.17;;
20669;SDS011;10494;50.868;4.180;2022-10-23T13:51:49;4.85;;;2.33;;
20669;SDS011;10494;50.868;4.180;2022-10-23T13:54:26;4.88;;;2.30;;
20669;SDS011;10494;50.868;4.180;2022-10-23T13:56:52;5.47;;;2.15;;
20669;SDS011;10494;50.868;4.180;2022-10-23T13:59:19;9.00;;;2.30;;
20669;SDS011;10494;50.868;4.180;2022-10-23T14:01:46;5.45;;;2.45;;
20669;SDS011;10494;50.868;4.180;2022-10-23T14:04:13;7.25;;;2.25;;
20669;SDS011;10494;50.868;4.180;2022-10-23T14:06:40;7.88;;;2.20;;
20669;SDS011;10494;50.868;4.180;2022-10-23T14:09:07;6.00;;;2.17;;
20669;SDS011;10494;50.868;4.180;2022-10-23T14:11:36;6.03;;;2.55;;
20669;SDS011;10494;50.868;4.180;2022-10-23T14:14:02;7.57;;;2.20;;
20669;SDS011;10494;50.868;4.180;2022-10-23T14:16:28;7.60;;;2.30;;
20669;SDS011;10494;50.868;4.180;2022-10-23T14:18:54;6.68;;;2.70;;
20669;SDS011;10494;50.868;4.180;2022-10-23T14:21:20;6.60;;;2.30;;
20669;SDS011;10494;50.868;4.180;2022-10-23T14:23:47;10.18;;;2.55;;
20669;SDS011;10494;50.868;4.180;2022-10-23T14:26:15;5.88;;;2.20;;
20669;SDS011;10494;50.868;4.180;2022-10-23T14:28:43;8.57;;;2.22;;
20669;SDS011;10494;50.868;4.180;2022-10-23T14:31:09;5.88;;;2.30;;
20669;SDS011;10494;50.868;4.180;2022-10-23T14:33:37;6.90;;;2.30;;
20669;SDS011;10494;50.868;4.180;2022-10-23T14:36:03;7.65;;;2.30;;
20669;SDS011;10494;50.868;4.180;2022-10-23T14:38:29;6.97;;;2.60;;
20669;SDS011;10494;50.868;4.180;2022-10-23T14:40:55;6.20;;;3.05;;
20669;SDS011;10494;50.868;4.180;2022-10-23T14:43:21;5.45;;;2.50;;
20669;SDS011;10494;50.868;4.180;2022-10-23T14:45:47;10.40;;;2.40;;
20669;SDS011;10494;50.868;4.180;2022-10-23T14:48:13;11.93;;;2.88;;
20669;SDS011;10494;50.868;4.180;2022-10-23T14:50:43;9.35;;;2.47;;
20669;SDS011;10494;50.868;4.180;2022-10-23T14:53:10;8.63;;;2.60;;
20669;SDS011;10494;50.868;4.180;2022-10-23T14:55:36;4.93;;;2.47;;
20669;SDS011;10494;50.868;4.180;2022-10-23T14:58:02;4.60;;;2.53;;
20669;SDS011;10494;50.868;4.180;2022-10-23T15:00:28;7.80;;;3.05;;
20669;SDS011;10494;50.868;4.180;2022-10-23T15:02:54;5.05;;;2.80;;
20669;SDS011;10494;50.868;4.180;2022-10-23T15:05:19;5.82;;;2.47;;
20669;SDS011;10494;50.868;4.180;2022-10-23T15:07:45;8.30;;;2.70;;
20669;SDS011;10494;50.868;4.180;2022-10-23T15:10:10;5.47;;;2.58;;
20669;SDS011;10494;50.868;4.180;2022-10-23T15:12:36;6.85;;;3.05;;
20669;SDS011;10494;50.868;4.180;2022-10-23T15:15:03;6.13;;;2.60;;
20669;SDS011;10494;50.868;4.180;2022-10-23T15:17:30;9.32;;;2.70;;
20669;SDS011;10494;50.868;4.180;2022-10-23T15:19:56;10.18;;;2.78;;
20669;SDS011;10494;50.868;4.180;2022-10-23T15:22:22;6.45;;;2.38;;
20669;SDS011;10494;50.868;4.180;2022-10-23T15:24:47;10.38;;;4.00;;
20669;SDS011;10494;50.868;4.180;2022-10-23T15:27:13;7.68;;;2.90;;
20669;SDS011;10494;50.868;4.180;2022-10-23T15:29:39;5.38;;;2.67;;
20669;SDS011;10494;50.868;4.180;2022-10-23T15:32:05;8.65;;;2.95;;
20669;SDS011;10494;50.868;4.180;2022-10-23T15:34:33;8.10;;;2.80;;
20669;SDS011;10494;50.868;4.180;2022-10-23T15:36:58;15.88;;;3.25;;
20669;SDS011;10494;50.868;4.180;2022-10-23T15:39:26;11.30;;;3.55;;
20669;SDS011;10494;50.868;4.180;2022-10-23T15:41:56;7.50;;;3.08;;
20669;SDS011;10494;50.868;4.180;2022-10-23T15:44:22;17.02;;;3.85;;
20669;SDS011;10494;50.868;4.180;2022-10-23T15:46:50;10.18;;;2.90;;
20669;SDS011;10494;50.868;4.180;2022-10-23T15:49:16;6.85;;;2.92;;
20669;SDS011;10494;50.868;4.180;2022-10-23T15:51:42;8.77;;;3.10;;
20669;SDS011;10494;50.868;4.180;2022-10-23T15:54:10;7.30;;;3.33;;
20669;SDS011;10494;50.868;4.180;2022-10-23T15:56:43;8.32;;;3.13;;
20669;SDS011;10494;50.868;4.180;2022-10-23T15:59:14;6.95;;;3.00;;
20669;SDS011;10494;50.868;4.180;2022-10-23T16:01:40;6.30;;;3.10;;
20669;SDS011;10494;50.868;4.180;2022-10-23T16:04:06;7.63;;;2.45;;
20669;SDS011;10494;50.868;4.180;2022-10-23T16:06:31;7.03;;;2.88;;
20669;SDS011;10494;50.868;4.180;2022-10-23T16:08:57;8.40;;;3.30;;
20669;SDS011;10494;50.868;4.180;2022-10-23T16:11:24;5.85;;;2.97;;
20669;SDS011;10494;50.868;4.180;2022-10-23T16:13:53;13.40;;;2.92;;
20669;SDS011;10494;50.868;4.180;2022-10-23T16:16:19;8.63;;;2.72;;
20669;SDS011;10494;50.868;4.180;2022-10-23T16:18:45;12.65;;;2.90;;
20669;SDS011;10494;50.868;4.180;2022-10-23T16:21:18;7.93;;;3.08;;
20669;SDS011;10494;50.868;4.180;2022-10-23T16:23:48;5.82;;;2.42;;
20669;SDS011;10494;50.868;4.180;2022-10-23T16:26:15;10.68;;;3.03;;
20669;SDS011;10494;50.868;4.180;2022-10-23T16:28:41;5.95;;;2.50;;
20669;SDS011;10494;50.868;4.180;2022-10-23T16:31:09;7.70;;;2.70;;
20669;SDS011;10494;50.868;4.180;2022-10-23T16:33:36;7.88;;;3.80;;
20669;SDS011;10494;50.868;4.180;2022-10-23T16:36:03;8.13;;;3.20;;
20669;SDS011;10494;50.868;4.180;2022-10-23T16:38:29;12.68;;;3.38;;
20669;SDS011;10494;50.868;4.180;2022-10-23T16:40:54;8.90;;;2.63;;
20669;SDS011;10494;50.868;4.180;2022-10-23T16:43:20;11.75;;;3.30;;
20669;SDS011;10494;50.868;4.180;2022-10-23T16:45:45;8.65;;;3.28;;
20669;SDS011;10494;50.868;4.180;2022-10-23T16:48:11;4.88;;;2.58;;
20669;SDS011;10494;50.868;4.180;2022-10-23T16:50:38;7.10;;;2.95;;
20669;SDS011;10494;50.868;4.180;2022-10-23T16:53:04;9.00;;;3.45;;
20669;SDS011;10494;50.868;4.180;2022-10-23T16:55:30;5.57;;;2.95;;
20669;SDS011;10494;50.868;4.180;2022-10-23T16:57:56;10.05;;;3.40;;
20669;SDS011;10494;50.868;4.180;2022-10-23T17:00:24;8.43;;;3.33;;